Time;durP1;ratioP1;P1;durP2;ratioP2;P2;SDS_P1;SDS_P2;PMS_P1;PMS_P2;Temp;Humidity;BMP_temperature;BMP_pressure;BME280_temperature;BME280_humidity;BME280_pressure;Samples;Min_cycle;Max_cycle;Signal;HPM_P1;HPM_P2
2021/05/24 00:00:38;;;;;;;7.57;3.88;;;;;;;17.43;54.22;100076.31;5093315;28;20432;-58
2021/05/24 00:03:04;;;;;;;5.65;3.78;;;;;;;17.44;54.57;100075.38;5075088;28;20111;-58
2021/05/24 00:05:33;;;;;;;4.80;3.50;;;;;;;17.43;54.91;100078.94;5075086;28;20062;-58
2021/05/24 00:08:00;;;;;;;6.47;3.35;;;;;;;17.36;55.59;100074.97;5103389;28;20036;-58
2021/05/24 00:10:28;;;;;;;8.23;3.83;;;;;;;17.29;55.69;100082.41;5075553;28;20028;-58
2021/05/24 00:12:56;;;;;;;10.25;4.05;;;;;;;17.38;56.09;100094.25;5100231;28;20015;-59
2021/05/24 00:15:26;;;;;;;8.05;3.78;;;;;;;17.36;56.57;100093.50;5080919;28;20024;-60
2021/05/24 00:17:52;;;;;;;6.07;3.95;;;;;;;17.28;56.80;100093.06;5105351;28;20242;-59
2021/05/24 00:20:20;;;;;;;8.60;4.57;;;;;;;17.16;57.40;100074.28;5104287;28;20448;-60
2021/05/24 00:22:46;;;;;;;8.50;4.15;;;;;;;17.16;57.61;100076.94;5093037;28;20090;-59
2021/05/24 00:25:12;;;;;;;7.75;3.72;;;;;;;17.16;57.86;100063.69;5074795;28;20048;-59
2021/05/24 00:27:38;;;;;;;6.95;4.45;;;;;;;17.26;57.71;100057.88;5094656;28;20119;-59
2021/05/24 00:30:05;;;;;;;7.88;4.50;;;;;;;17.22;57.71;100052.78;5113286;28;20080;-59
2021/05/24 00:32:30;;;;;;;6.45;4.20;;;;;;;17.25;57.81;100053.53;5113289;28;20026;-59
2021/05/24 00:34:56;;;;;;;8.27;4.60;;;;;;;17.21;58.05;100045.75;5110103;28;20308;-58
2021/05/24 00:37:22;;;;;;;7.30;4.05;;;;;;;17.15;58.33;100056.69;5085814;28;20035;-59
2021/05/24 00:39:48;;;;;;;6.80;4.32;;;;;;;17.06;58.76;100057.19;5112492;28;20016;-58
2021/05/24 00:42:14;;;;;;;9.23;4.90;;;;;;;16.93;59.32;100050.88;5113002;28;20027;-59
2021/05/24 00:44:40;;;;;;;6.05;4.40;;;;;;;16.89;59.66;100047.56;5109780;28;20063;-58
2021/05/24 00:47:06;;;;;;;9.65;4.72;;;;;;;16.91;59.88;100044.84;5074578;28;20025;-59
2021/05/24 00:49:32;;;;;;;8.73;4.28;;;;;;;16.90;59.96;100040.47;5092202;28;20097;-58
2021/05/24 00:51:59;;;;;;;8.68;4.38;;;;;;;16.97;59.65;100047.16;5092338;28;20039;-58
2021/05/24 00:54:25;;;;;;;7.25;4.50;;;;;;;16.90;59.77;100033.41;5091887;28;20028;-58
2021/05/24 00:56:54;;;;;;;6.95;4.40;;;;;;;16.97;59.69;100033.91;5092731;28;20103;-59
2021/05/24 00:59:20;;;;;;;7.70;4.13;;;;;;;16.98;59.74;100035.59;5074334;28;20507;-59
2021/05/24 01:01:46;;;;;;;10.20;4.93;;;;;;;16.92;60.17;100031.53;5074130;28;20028;-59
2021/05/24 01:04:14;;;;;;;5.50;4.10;;;;;;;17.03;59.62;100025.66;5092199;28;20051;-59
2021/05/24 01:06:40;;;;;;;5.57;4.45;;;;;;;16.94;60.01;100031.44;5092177;28;20177;-58
2021/05/24 01:09:06;;;;;;;9.43;4.22;;;;;;;16.89;60.45;100020.28;5091985;28;20020;-58
2021/05/24 01:11:33;;;;;;;10.38;4.50;;;;;;;16.91;60.13;100021.03;5092639;28;20464;-59
2021/05/24 01:14:01;;;;;;;5.78;4.13;;;;;;;16.92;60.36;100006.88;5091605;28;20020;-58
2021/05/24 01:16:27;;;;;;;6.75;4.30;;;;;;;16.96;59.85;100009.22;5092482;28;20051;-59
2021/05/24 01:18:53;;;;;;;7.50;4.10;;;;;;;16.84;60.46;100016.03;5092104;28;20024;-58
2021/05/24 01:21:21;;;;;;;6.30;4.63;;;;;;;16.84;60.38;100013.41;5092202;28;20020;-58
2021/05/24 01:23:47;;;;;;;8.20;4.72;;;;;;;16.87;60.33;100009.78;5091693;28;20028;-58
2021/05/24 01:26:14;;;;;;;8.95;4.03;;;;;;;16.80;60.47;100013.66;5092005;28;20036;-58
2021/05/24 01:28:40;;;;;;;8.35;4.50;;;;;;;16.76;60.77;100007.69;5092011;28;20026;-58
2021/05/24 01:31:07;;;;;;;7.07;4.13;;;;;;;16.84;60.26;100009.91;5074473;28;20092;-59
2021/05/24 01:33:35;;;;;;;7.90;4.20;;;;;;;16.75;60.27;100005.97;5092060;28;20497;-58
2021/05/24 01:36:05;;;;;;;7.35;4.13;;;;;;;16.80;60.21;100019.81;5091600;28;20054;-58
2021/05/24 01:38:34;;;;;;;7.32;4.05;;;;;;;16.75;60.34;100026.28;5073726;28;20376;-58
2021/05/24 01:41:00;;;;;;;7.38;4.38;;;;;;;16.78;60.34;100021.66;5092262;28;20016;-58
2021/05/24 01:43:29;;;;;;;6.53;3.88;;;;;;;16.74;60.39;100029.88;5091840;28;20024;-58
2021/05/24 01:45:55;;;;;;;7.90;3.92;;;;;;;16.68;60.42;100045.09;5091900;28;20039;-59
2021/05/24 01:48:20;;;;;;;6.65;3.80;;;;;;;16.74;60.14;100049.22;5091819;28;20032;-58
2021/05/24 01:50:46;;;;;;;7.53;3.72;;;;;;;16.80;60.11;100050.66;5073696;28;20028;-58
2021/05/24 01:53:12;;;;;;;5.20;3.58;;;;;;;16.78;60.47;100040.16;5094950;28;20027;-58
2021/05/24 01:55:39;;;;;;;7.88;4.22;;;;;;;16.76;60.08;100035.91;5095632;28;20471;-59
2021/05/24 01:58:06;;;;;;;6.65;3.60;;;;;;;16.60;61.05;100028.81;5077408;28;20514;-58
2021/05/24 02:00:32;;;;;;;6.70;3.90;;;;;;;16.70;61.00;100037.09;5095439;28;20024;-58
2021/05/24 02:02:58;;;;;;;8.57;3.95;;;;;;;16.57;61.51;100052.75;5095480;28;20091;-58
2021/05/24 02:05:25;;;;;;;8.27;3.83;;;;;;;16.56;61.38;100044.91;5094934;28;20104;-58
2021/05/24 02:07:52;;;;;;;6.20;3.75;;;;;;;16.59;61.14;100050.91;5095302;28;20081;-58
2021/05/24 02:10:21;;;;;;;6.20;2.92;;;;;;;16.74;60.80;100049.22;5076832;28;20028;-59
2021/05/24 02:12:48;;;;;;;5.85;3.90;;;;;;;16.62;61.18;100048.13;5094854;28;20038;-58
2021/05/24 02:15:17;;;;;;;8.85;3.47;;;;;;;16.69;61.17;100045.97;5094629;28;20069;-58
2021/05/24 02:17:43;;;;;;;7.63;3.88;;;;;;;16.65;60.90;100020.63;5095074;28;20024;-59
2021/05/24 02:20:11;;;;;;;8.80;4.45;;;;;;;16.63;61.04;100009.28;5094861;28;20024;-59
2021/05/24 02:22:36;;;;;;;7.07;3.85;;;;;;;16.64;61.13;99998.63;5095158;28;20031;-59
2021/05/24 02:25:03;;;;;;;6.22;3.40;;;;;;;16.65;60.97;99999.47;5059650;28;20126;-57
2021/05/24 02:27:28;;;;;;;6.22;3.88;;;;;;;16.78;61.10;99992.56;5094973;28;20012;-58
2021/05/24 02:29:54;;;;;;;5.40;3.30;;;;;;;16.62;61.52;99984.66;5094617;28;20039;-58
2021/05/24 02:32:20;;;;;;;14.10;4.38;;;;;;;16.62;61.67;100000.53;5094901;28;20046;-59
2021/05/24 02:34:45;;;;;;;15.13;4.32;;;;;;;16.60;61.68;100012.94;5094395;28;20463;-58
2021/05/24 02:37:11;;;;;;;7.97;3.95;;;;;;;16.67;61.50;100000.25;5076576;28;20089;-58
2021/05/24 02:39:37;;;;;;;6.10;3.80;;;;;;;16.54;61.80;99999.22;5076152;28;20016;-59
2021/05/24 02:42:02;;;;;;;8.27;3.78;;;;;;;16.59;61.81;99995.41;5076736;28;20020;-58
2021/05/24 02:44:28;;;;;;;9.13;3.80;;;;;;;16.52;62.21;99998.44;5076249;28;20501;-58
2021/05/24 02:46:54;;;;;;;8.50;3.67;;;;;;;16.53;62.26;99997.53;5094854;28;20024;-59
2021/05/24 02:49:19;;;;;;;6.90;3.80;;;;;;;16.51;62.61;99994.97;5094511;28;20103;-59
2021/05/24 02:51:45;;;;;;;8.30;4.10;;;;;;;16.45;62.70;100011.16;5094441;28;20101;-59
2021/05/24 02:54:11;;;;;;;8.98;4.07;;;;;;;16.47;62.88;100018.03;5059642;28;20371;-59
2021/05/24 02:56:37;;;;;;;7.05;3.97;;;;;;;16.45;62.75;100009.34;5076051;28;20046;-58
2021/05/24 02:59:03;;;;;;;7.70;3.70;;;;;;;16.51;62.70;100002.88;5094950;28;20103;-59
2021/05/24 03:01:31;;;;;;;9.30;3.58;;;;;;;16.52;62.33;99999.28;5094714;28;20028;-59
2021/05/24 03:03:58;;;;;;;8.93;3.90;;;;;;;16.52;62.33;100001.09;5093941;28;20024;-59
2021/05/24 03:06:24;;;;;;;6.95;3.97;;;;;;;16.40;62.43;99990.25;5094229;28;20036;-58
2021/05/24 03:08:51;;;;;;;12.20;3.78;;;;;;;16.40;62.71;99990.25;5094325;28;20023;-58
2021/05/24 03:11:22;;;;;;;11.68;4.35;;;;;;;16.28;62.64;100001.47;5076117;28;20474;-58
2021/05/24 03:13:47;;;;;;;7.03;3.47;;;;;;;16.22;62.67;100007.94;5094220;28;20040;-59
2021/05/24 03:16:13;;;;;;;8.70;3.42;;;;;;;16.27;62.87;100016.47;5094316;28;20451;-59
2021/05/24 03:18:39;;;;;;;7.25;3.55;;;;;;;16.28;62.52;100014.69;5094039;28;20024;-58
2021/05/24 03:21:05;;;;;;;7.90;3.58;;;;;;;16.30;62.30;100021.59;5094249;28;20032;-59
2021/05/24 03:23:31;;;;;;;9.77;3.17;;;;;;;16.28;62.18;100025.25;5094031;28;20020;-58
2021/05/24 03:25:56;;;;;;;7.38;3.78;;;;;;;16.40;61.54;100036.97;5093752;28;20131;-59
2021/05/24 03:28:22;;;;;;;9.82;3.40;;;;;;;16.32;61.95;100037.38;5059197;28;20052;-59
2021/05/24 03:30:48;;;;;;;7.22;2.78;;;;;;;16.36;61.81;100038.94;5075741;28;20020;-59
2021/05/24 03:33:14;;;;;;;6.93;2.90;;;;;;;16.37;61.39;100048.56;5075728;28;20376;-58
2021/05/24 03:35:40;;;;;;;7.53;2.85;;;;;;;16.42;60.94;100054.44;5094030;28;20444;-59
2021/05/24 03:38:06;;;;;;;9.55;3.28;;;;;;;16.36;61.18;100056.56;5094140;28;20099;-58
2021/05/24 03:40:31;;;;;;;8.98;3.25;;;;;;;16.23;61.53;100059.00;5093630;28;20024;-59
2021/05/24 03:42:57;;;;;;;9.00;3.58;;;;;;;16.24;61.72;100042.22;5093843;28;20020;-59
2021/05/24 03:45:26;;;;;;;6.40;3.10;;;;;;;16.25;61.27;100034.19;5075934;28;20027;-59
2021/05/24 03:47:52;;;;;;;7.65;3.50;;;;;;;16.24;61.43;100042.22;5093834;28;20111;-59
2021/05/24 03:50:18;;;;;;;7.72;3.05;;;;;;;16.15;61.87;100035.63;5093735;28;20104;-59
2021/05/24 03:52:44;;;;;;;6.60;2.85;;;;;;;16.12;61.86;100049.84;5093944;28;20526;-59
2021/05/24 03:55:14;;;;;;;11.27;3.42;;;;;;;16.18;61.52;100045.16;5093926;28;20012;-60
2021/05/24 03:57:39;;;;;;;6.78;3.60;;;;;;;16.11;61.41;100056.03;5093595;28;20535;-59
2021/05/24 04:00:07;;;;;;;8.45;3.20;;;;;;;16.19;61.43;100062.75;5093618;28;20067;-59
2021/05/24 04:02:33;;;;;;;6.22;2.88;;;;;;;16.13;61.57;100059.50;5093672;28;20107;-59
2021/05/24 04:05:03;;;;;;;7.68;3.40;;;;;;;16.11;61.54;100052.56;5076116;28;20069;-58
2021/05/24 04:07:29;;;;;;;6.72;2.88;;;;;;;16.06;61.77;100039.59;5093429;28;20032;-58
2021/05/24 04:09:54;;;;;;;7.38;3.22;;;;;;;16.15;61.62;100032.13;5093098;28;20411;-58
2021/05/24 04:12:20;;;;;;;7.30;2.85;;;;;;;16.08;61.37;100043.00;5092987;28;20069;-59
2021/05/24 04:14:46;;;;;;;6.65;3.05;;;;;;;16.11;61.64;100034.91;5092292;28;20028;-60
2021/05/24 04:17:15;;;;;;;6.60;2.97;;;;;;;16.13;61.39;100029.56;5093123;28;20405;-59
2021/05/24 04:19:41;;;;;;;5.57;2.75;;;;;;;16.09;61.42;100033.31;5093085;28;20368;-59
2021/05/24 04:22:07;;;;;;;3.95;2.40;;;;;;;16.12;61.38;100019.94;5092995;28;20237;-59
2021/05/24 04:24:32;;;;;;;6.85;3.42;;;;;;;16.02;61.46;100013.41;5092649;28;20043;-59
2021/05/24 04:26:58;;;;;;;6.60;3.25;;;;;;;16.07;61.30;100025.47;5093013;28;20032;-59
2021/05/24 04:29:24;;;;;;;5.55;3.30;;;;;;;16.11;61.33;100012.94;5074900;28;20024;-59
2021/05/24 04:31:49;;;;;;;7.13;2.78;;;;;;;16.02;60.87;100011.63;5074698;28;20024;-59
2021/05/24 04:34:15;;;;;;;4.03;2.72;;;;;;;16.00;61.42;99999.44;5092903;28;20020;-58
2021/05/24 04:36:41;;;;;;;5.38;3.03;;;;;;;16.05;61.20;99990.34;5092792;28;20021;-59
2021/05/24 04:39:07;;;;;;;5.97;3.72;;;;;;;16.02;61.15;99990.50;5074772;28;20121;-59
2021/05/24 04:41:32;;;;;;;6.80;2.83;;;;;;;16.10;60.71;99993.59;5092699;28;20476;-58
2021/05/24 04:44:09;;;;;;;4.47;2.65;;;;;;;16.15;60.29;99985.44;5092729;28;20028;-59
2021/05/24 04:46:35;;;;;;;4.03;3.00;;;;;;;16.16;60.07;99981.84;5092863;28;20039;-59
2021/05/24 04:49:01;;;;;;;5.75;2.33;;;;;;;16.16;60.33;99970.44;5058201;28;20095;-59
2021/05/24 04:51:27;;;;;;;7.13;2.60;;;;;;;16.16;60.48;99975.72;5092784;28;20094;-59
2021/05/24 04:53:52;;;;;;;5.30;2.50;;;;;;;16.39;59.61;99972.66;5092893;28;20533;-58
2021/05/24 04:56:18;;;;;;;4.78;3.10;;;;;;;16.25;59.94;99988.44;5092824;28;20032;-59
2021/05/24 04:58:44;;;;;;;7.00;2.35;;;;;;;16.26;59.40;99995.41;5092631;28;20028;-59
2021/05/24 05:01:09;;;;;;;5.35;2.53;;;;;;;16.24;59.59;100000.78;5092558;28;20028;-58
2021/05/24 05:03:35;;;;;;;6.43;2.70;;;;;;;16.17;60.22;99999.41;5092542;28;20056;-58
2021/05/24 05:06:01;;;;;;;5.85;2.42;;;;;;;16.24;59.83;100007.88;5092539;28;20028;-59
2021/05/24 05:08:27;;;;;;;8.35;2.50;;;;;;;16.21;59.19;100016.78;5074304;28;20031;-59
2021/05/24 05:10:52;;;;;;;5.28;2.22;;;;;;;16.24;58.89;100029.00;5074405;28;20024;-59
2021/05/24 05:13:18;;;;;;;6.47;2.22;;;;;;;16.27;58.52;100031.47;5092606;28;20023;-58
2021/05/24 05:15:43;;;;;;;5.72;2.65;;;;;;;16.12;58.95;100034.00;5092474;28;20027;-59
2021/05/24 05:18:09;;;;;;;5.38;2.90;;;;;;;16.29;58.29;100045.47;5092476;28;20035;-60
2021/05/24 05:20:35;;;;;;;6.47;2.72;;;;;;;16.33;58.14;100052.31;5092470;28;20035;-59
2021/05/24 05:23:00;;;;;;;5.35;2.30;;;;;;;16.43;58.02;100066.72;5092204;28;20043;-59
2021/05/24 05:25:26;;;;;;;5.43;2.33;;;;;;;16.26;58.52;100062.34;5092792;28;20414;-60
2021/05/24 05:27:52;;;;;;;7.85;2.00;;;;;;;16.30;58.41;100055.09;5096389;28;20028;-57
2021/05/24 05:30:18;;;;;;;8.15;2.65;;;;;;;16.30;58.48;100068.31;5096367;28;20052;-60
2021/05/24 05:32:44;;;;;;;3.42;1.95;;;;;;;16.20;59.13;100078.53;5096805;28;20028;-59
2021/05/24 05:35:10;;;;;;;4.78;2.05;;;;;;;16.26;58.92;100090.53;5096600;28;20024;-59
2021/05/24 05:37:35;;;;;;;4.68;2.63;;;;;;;16.40;59.18;100101.25;5096270;28;20043;-59
2021/05/24 05:40:01;;;;;;;9.70;2.33;;;;;;;16.48;59.29;100107.00;5095857;28;20020;-58
2021/05/24 05:42:27;;;;;;;8.82;3.35;;;;;;;16.17;60.88;100118.31;5095869;28;20034;-58
2021/05/24 05:44:52;;;;;;;6.28;2.65;;;;;;;16.07;62.46;100117.91;5095875;28;20065;-59
2021/05/24 05:47:18;;;;;;;6.57;2.95;;;;;;;16.13;63.31;100120.25;5095842;28;20095;-59
2021/05/24 05:49:47;;;;;;;7.88;3.28;;;;;;;16.20;64.55;100118.16;5095616;28;20061;-58
2021/05/24 05:52:16;;;;;;;7.50;3.42;;;;;;;15.94;66.48;100111.53;5095723;28;20081;-58
2021/05/24 05:54:42;;;;;;;9.25;4.00;;;;;;;15.88;67.96;100106.56;5077454;28;20455;-59
2021/05/24 05:57:08;;;;;;;7.43;3.70;;;;;;;15.53;70.43;100098.53;5095659;28;20089;-59
2021/05/24 05:59:33;;;;;;;7.13;3.67;;;;;;;15.48;71.53;100092.66;5060701;28;20040;-59
2021/05/24 06:01:59;;;;;;;9.55;4.05;;;;;;;15.24;72.61;100092.91;5077161;28;20109;-59
2021/05/24 06:04:24;;;;;;;6.95;3.25;;;;;;;15.06;74.08;100083.19;5077064;28;20140;-59
2021/05/24 06:06:50;;;;;;;7.38;3.90;;;;;;;14.74;76.22;100075.88;5095217;28;20025;-59
2021/05/24 06:09:15;;;;;;;8.30;4.43;;;;;;;14.87;75.59;100076.16;5077031;28;20099;-59
2021/05/24 06:11:41;;;;;;;6.85;4.70;;;;;;;14.70;76.85;100076.06;5095221;28;20027;-59
2021/05/24 06:14:07;;;;;;;6.63;4.30;;;;;;;14.74;77.06;100067.13;5095113;28;20026;-59
2021/05/24 06:16:32;;;;;;;8.05;4.78;;;;;;;14.64;77.75;100069.31;5095309;28;20111;-58
2021/05/24 06:18:58;;;;;;;8.43;4.85;;;;;;;14.70;77.87;100068.16;5077036;28;20020;-59
2021/05/24 06:21:23;;;;;;;8.55;5.32;;;;;;;14.50;78.09;100067.25;5076859;28;20024;-59
2021/05/24 06:23:49;;;;;;;6.95;5.22;;;;;;;14.65;77.89;100069.25;5060270;28;20024;-59
2021/05/24 06:26:15;;;;;;;10.82;5.47;;;;;;;14.51;79.00;100062.84;5076313;28;20063;-59
2021/05/24 06:28:40;;;;;;;8.15;4.97;;;;;;;14.56;78.83;100059.06;5094879;28;20026;-58
2021/05/24 06:31:06;;;;;;;9.13;4.72;;;;;;;14.48;78.34;100071.75;5094969;28;20379;-59
2021/05/24 06:33:32;;;;;;;7.57;5.00;;;;;;;14.38;79.26;100078.34;5076618;28;20027;-57
2021/05/24 06:35:57;;;;;;;7.95;5.50;;;;;;;14.32;80.16;100097.06;5095081;28;20379;-58
2021/05/24 06:38:23;;;;;;;6.80;5.38;;;;;;;14.45;78.74;100095.59;5094233;28;20115;-59
2021/05/24 06:40:48;;;;;;;10.10;5.22;;;;;;;14.35;79.89;100112.72;5094799;28;20028;-58
2021/05/24 06:43:14;;;;;;;7.72;5.13;;;;;;;14.38;80.16;100128.41;5094773;28;20032;-59
2021/05/24 06:45:40;;;;;;;8.45;5.30;;;;;;;14.45;79.72;100137.75;5076449;28;20024;-59
2021/05/24 06:48:06;;;;;;;7.35;5.65;;;;;;;14.45;79.88;100145.66;5076553;28;20441;-58
2021/05/24 06:50:31;;;;;;;7.05;4.47;;;;;;;14.26;80.01;100154.34;5094633;28;20020;-59
2021/05/24 06:52:57;;;;;;;10.50;5.60;;;;;;;14.27;80.54;100147.31;5076486;28;20444;-58
2021/05/24 06:55:22;;;;;;;7.68;5.50;;;;;;;14.43;79.52;100155.41;5094682;28;20020;-59
2021/05/24 06:57:48;;;;;;;6.45;4.97;;;;;;;14.33;80.02;100159.38;5076368;28;20028;-59
2021/05/24 07:00:14;;;;;;;9.75;5.57;;;;;;;14.24;80.43;100164.13;5094934;28;20077;-58
2021/05/24 07:02:42;;;;;;;10.43;6.10;;;;;;;14.14;81.24;100157.50;5095073;28;20052;-59
2021/05/24 07:05:08;;;;;;;9.65;6.25;;;;;;;14.15;81.70;100161.00;5094113;28;20024;-59
2021/05/24 07:07:35;;;;;;;8.05;5.88;;;;;;;14.10;81.88;100155.94;5075890;28;20031;-59
2021/05/24 07:10:01;;;;;;;8.45;5.22;;;;;;;14.23;81.26;100161.53;5094167;28;20032;-59
2021/05/24 07:12:27;;;;;;;7.97;5.40;;;;;;;14.35;80.77;100162.78;5066123;28;20028;-60
2021/05/24 07:14:54;;;;;;;9.77;5.80;;;;;;;14.19;81.31;100160.78;5076593;28;20074;-60
2021/05/24 07:17:20;;;;;;;8.82;5.82;;;;;;;14.27;81.35;100152.56;5078093;28;20020;-57
2021/05/24 07:19:46;;;;;;;8.57;4.82;;;;;;;14.29;80.85;100146.31;5063776;28;20043;-57
2021/05/24 07:22:12;;;;;;;8.30;5.53;;;;;;;14.23;82.07;100153.63;5067497;28;20020;-56
2021/05/24 07:24:37;;;;;;;4.82;4.20;;;;;;;14.29;80.54;100141.06;5052422;28;20048;-59
2021/05/24 07:27:04;;;;;;;6.53;4.03;;;;;;;14.45;80.13;100145.66;5080300;28;20544;-60
2021/05/24 07:29:30;;;;;;;4.90;4.10;;;;;;;14.45;80.38;100137.75;5079153;28;20032;-58
2021/05/24 07:31:56;;;;;;;4.75;3.90;;;;;;;14.44;80.07;100128.16;5069749;28;20032;-57
2021/05/24 07:34:22;;;;;;;4.35;3.58;;;;;;;14.28;80.85;100139.34;5071589;28;21925;-58
2021/05/24 07:36:47;;;;;;;5.15;3.85;;;;;;;14.41;80.39;100144.09;5080414;28;20024;-59
2021/05/24 07:39:13;;;;;;;3.92;3.53;;;;;;;14.38;80.54;100144.22;5081051;28;20032;-58
2021/05/24 07:41:39;;;;;;;4.43;3.58;;;;;;;14.45;79.36;100145.66;5081263;28;20039;-58
2021/05/24 07:44:05;;;;;;;4.78;2.92;;;;;;;14.50;77.55;100151.56;5054124;28;20107;-58
2021/05/24 07:46:32;;;;;;;4.25;2.70;;;;;;;14.30;78.20;100169.09;5068781;28;20028;-57
2021/05/24 07:48:57;;;;;;;7.00;3.53;;;;;;;14.26;79.20;100180.69;5075030;28;20020;-59
2021/05/24 07:51:25;;;;;;;3.47;3.10;;;;;;;14.16;80.31;100183.78;5083568;28;20031;-58
2021/05/24 07:53:52;;;;;;;6.05;3.30;;;;;;;14.05;80.79;100178.97;5091795;28;20028;-59
2021/05/24 07:56:18;;;;;;;4.22;3.13;;;;;;;14.14;80.26;100173.28;5092121;28;20028;-58
2021/05/24 07:58:43;;;;;;;6.32;3.40;;;;;;;14.15;80.03;100185.56;5091922;28;20069;-58
2021/05/24 08:01:09;;;;;;;6.22;3.20;;;;;;;14.07;80.79;100188.50;5092237;28;20070;-59
2021/05/24 08:03:34;;;;;;;6.57;3.20;;;;;;;14.05;81.10;100194.78;5092233;28;20028;-58
2021/05/24 08:06:00;;;;;;;4.05;3.15;;;;;;;13.94;80.55;100193.41;5107260;28;20067;-59
2021/05/24 08:08:26;;;;;;;5.32;3.10;;;;;;;14.13;80.56;100184.78;5091733;28;20028;-58
2021/05/24 08:10:51;;;;;;;3.35;2.85;;;;;;;14.15;80.74;100198.72;5080721;28;20356;-58
2021/05/24 08:13:17;;;;;;;4.85;3.30;;;;;;;14.27;80.24;100190.28;5067371;28;20469;-58
2021/05/24 08:15:43;;;;;;;5.60;2.92;;;;;;;14.18;80.60;100189.81;5091395;28;20689;-59
2021/05/24 08:18:09;;;;;;;3.63;2.72;;;;;;;14.05;79.94;100189.50;5092415;28;20443;-59
2021/05/24 08:20:35;;;;;;;5.45;3.33;;;;;;;14.06;80.69;100189.44;5073374;28;20107;-58
2021/05/24 08:23:01;;;;;;;4.18;3.00;;;;;;;14.16;79.85;100184.66;5073678;28;20491;-58
2021/05/24 08:25:27;;;;;;;3.95;3.05;;;;;;;14.09;81.21;100175.28;5091465;28;20040;-58
2021/05/24 08:27:53;;;;;;;5.80;4.28;;;;;;;14.18;80.89;100169.63;5074038;28;20035;-59
2021/05/24 08:30:20;;;;;;;8.25;2.90;;;;;;;14.03;81.07;100165.88;5090496;28;20048;-59
2021/05/24 08:32:47;;;;;;;4.53;3.45;;;;;;;14.10;81.64;100161.19;5091755;28;20038;-59
2021/05/24 08:35:13;;;;;;;4.50;3.38;;;;;;;14.19;81.46;100158.16;5073085;28;20059;-59
2021/05/24 08:37:39;;;;;;;4.53;2.90;;;;;;;14.19;80.79;100152.88;5073808;28;20032;-58
2021/05/24 08:40:07;;;;;;;3.42;2.92;;;;;;;14.22;80.81;100150.13;5091474;28;20021;-58
2021/05/24 08:42:41;;;;;;;4.13;3.45;;;;;;;14.22;80.46;100138.75;5073376;28;20028;-58
2021/05/24 08:45:08;;;;;;;5.82;4.18;;;;;;;14.05;81.51;100136.84;5092021;28;20085;-58
2021/05/24 08:47:34;;;;;;;8.85;4.82;;;;;;;14.12;82.17;100125.97;5091197;28;20078;-58
2021/05/24 08:50:00;;;;;;;6.28;4.57;;;;;;;14.03;82.56;100105.31;5091358;28;20421;-59
2021/05/24 08:52:29;;;;;;;6.05;4.90;;;;;;;13.95;82.77;100088.97;5073217;28;20055;-58
2021/05/24 08:54:55;;;;;;;5.85;4.28;;;;;;;14.20;81.69;100074.75;5072909;28;20795;-59
2021/05/24 08:57:20;;;;;;;6.07;4.07;;;;;;;14.11;81.40;100054.91;5082561;28;20028;-59
2021/05/24 08:59:46;;;;;;;5.00;3.42;;;;;;;14.07;81.95;100041.03;5072353;28;20138;-59
2021/05/24 09:02:12;;;;;;;7.90;5.75;;;;;;;14.37;81.33;100031.84;5095144;28;20024;-59
2021/05/24 09:04:49;;;;;;;8.75;7.35;;;;;;;14.25;82.22;100034.09;5095094;28;20028;-58
2021/05/24 09:07:17;;;;;;;4.82;3.58;;;;;;;14.34;81.28;100042.50;5076894;28;20035;-60
2021/05/24 09:10:05;;;;;;;4.20;3.42;;;;;;;14.23;82.08;100035.94;5077600;28;20028;-58
2021/05/24 09:12:32;;;;;;;7.32;4.22;;;;;;;14.08;82.58;100031.34;5095259;28;20036;-58
2021/05/24 09:15:08;;;;;;;4.63;4.22;;;;;;;14.10;82.05;100024.25;5095645;28;20036;-58
2021/05/24 09:17:52;;;;;;;4.00;3.60;;;;;;;14.14;82.23;100038.97;5095167;28;20428;-58
2021/05/24 09:20:21;;;;;;;5.53;4.35;;;;;;;14.21;82.70;100079.94;5076900;28;20040;-59
2021/05/24 09:23:12;;;;;;;4.53;3.88;;;;;;;14.30;82.13;100058.44;5077342;28;20032;-58
2021/05/24 09:26:08;;;;;;;4.93;3.95;;;;;;;14.37;80.09;100034.47;5092428;28;20518;-59
2021/05/24 09:28:38;;;;;;;4.85;4.22;;;;;;;14.24;81.23;100016.59;5093769;28;20050;-58
2021/05/24 09:31:22;;;;;;;5.65;3.83;;;;;;;14.36;81.39;100025.72;5095318;28;20032;-58
2021/05/24 09:34:00;;;;;;;3.90;3.50;;;;;;;14.43;81.46;100053.50;5095226;28;20461;-59
2021/05/24 09:36:27;;;;;;;6.20;4.10;;;;;;;14.19;82.09;100036.16;5096239;28;20028;-59
2021/05/24 09:38:59;;;;;;;4.88;4.00;;;;;;;14.32;82.09;100025.94;5095335;28;20154;-58
2021/05/24 09:41:25;;;;;;;6.35;4.43;;;;;;;14.30;81.95;100021.56;5094840;28;20028;-59
2021/05/24 09:43:53;;;;;;;5.28;4.75;;;;;;;14.43;80.37;99999.97;5077456;28;20032;-59
2021/05/24 09:46:20;;;;;;;7.13;5.30;;;;;;;14.46;81.10;99973.47;5094873;28;20020;-58
2021/05/24 09:48:52;;;;;;;6.68;4.78;;;;;;;14.68;79.71;99967.22;5095726;28;20032;-58
2021/05/24 09:51:21;;;;;;;6.00;5.07;;;;;;;14.59;80.58;99965.84;5094215;28;20115;-59
2021/05/24 09:54:01;;;;;;;5.80;5.07;;;;;;;14.70;80.49;99965.38;5094886;28;20479;-59
2021/05/24 09:56:38;;;;;;;6.18;5.55;;;;;;;14.57;81.32;99965.94;5076419;28;20028;-58
2021/05/24 09:59:09;;;;;;;7.72;5.70;;;;;;;14.57;81.76;99950.13;5091265;28;20031;-59
2021/05/24 10:01:40;;;;;;;6.18;5.55;;;;;;;14.55;81.45;99941.41;5074504;28;20488;-59
2021/05/24 10:04:07;;;;;;;6.95;5.85;;;;;;;14.52;81.38;99936.31;5064407;28;20024;-59
2021/05/24 10:06:34;;;;;;;8.60;6.50;;;;;;;14.51;81.29;99945.13;5076881;28;20543;-59
2021/05/24 10:09:02;;;;;;;6.90;6.13;;;;;;;14.43;81.25;99950.75;5095101;28;20085;-58
2021/05/24 10:11:29;;;;;;;6.65;6.03;;;;;;;14.50;81.66;99956.56;5076550;28;20432;-59
2021/05/24 10:13:56;;;;;;;6.18;5.45;;;;;;;14.50;81.69;99948.66;5092728;28;20017;-59
2021/05/24 10:16:24;;;;;;;6.20;5.20;;;;;;;14.55;81.28;99936.13;5076271;28;20028;-58
2021/05/24 10:18:49;;;;;;;7.32;5.38;;;;;;;14.69;79.65;99937.31;5094012;28;20024;-58
2021/05/24 10:21:15;;;;;;;5.38;4.88;;;;;;;14.40;80.15;99947.41;5075488;28;20031;-58
2021/05/24 10:23:41;;;;;;;6.00;5.15;;;;;;;14.44;81.18;99959.53;5088237;28;20020;-60
2021/05/24 10:26:10;;;;;;;4.88;4.13;;;;;;;14.49;80.40;99966.28;5093875;28;20032;-58
2021/05/24 10:28:37;;;;;;;5.47;4.85;;;;;;;14.50;80.83;99959.22;5094634;28;20028;-58
2021/05/24 10:31:04;;;;;;;5.20;4.20;;;;;;;14.60;80.71;99950.00;5094145;28;20056;-59
2021/05/24 10:33:44;;;;;;;5.15;4.60;;;;;;;14.57;80.71;99944.84;5075073;28;20028;-59
2021/05/24 10:36:20;;;;;;;6.50;5.03;;;;;;;14.46;81.48;99949.75;5094660;28;20024;-59
2021/05/24 10:39:04;;;;;;;5.00;4.45;;;;;;;14.51;79.85;99936.38;5076496;28;20460;-59
2021/05/24 10:41:49;;;;;;;5.75;4.20;;;;;;;14.65;79.48;99932.19;5094482;28;20534;-59
2021/05/24 10:44:21;;;;;;;6.20;4.63;;;;;;;14.61;78.84;99927.97;5075551;28;20085;-59
2021/05/24 10:46:48;;;;;;;5.88;4.13;;;;;;;14.61;79.15;99940.31;5094269;28;20534;-59
2021/05/24 10:49:25;;;;;;;6.57;4.55;;;;;;;14.59;80.00;99931.59;5075782;28;20029;-59
2021/05/24 10:51:55;;;;;;;6.55;4.93;;;;;;;14.61;80.24;99929.75;5076240;28;20027;-58
2021/05/24 10:54:21;;;;;;;5.82;5.05;;;;;;;14.60;80.26;99918.38;5074893;28;20032;-59
2021/05/24 10:57:14;;;;;;;5.78;5.18;;;;;;;14.65;81.14;99915.50;5070871;28;20031;-58
2021/05/24 10:59:48;;;;;;;6.32;5.13;;;;;;;14.65;81.05;99902.31;5081470;28;20039;-57
2021/05/24 11:02:26;;;;;;;8.75;5.75;;;;;;;14.62;82.30;99890.16;5093593;28;20130;-57
2021/05/24 11:05:02;;;;;;;9.07;6.10;;;;;;;14.57;82.36;99893.91;5091489;28;20036;-57
2021/05/24 11:07:32;;;;;;;7.03;5.13;;;;;;;14.87;80.10;99888.97;5072154;28;20054;-58
2021/05/24 11:10:13;;;;;;;6.63;5.93;;;;;;;14.77;80.08;99900.91;5090508;28;20094;-58
2021/05/24 11:12:40;;;;;;;8.95;5.47;;;;;;;14.77;82.19;99908.81;5092371;28;20032;-58
2021/05/24 11:15:13;;;;;;;6.47;5.30;;;;;;;14.66;82.18;99918.06;5093203;28;20550;-57
2021/05/24 11:17:58;;;;;;;;;;;;;;;14.81;82.02;99918.25;5077723;28;20020;-58
2021/05/24 11:20:59;;;;;;;7.30;6.10;;;;;;;14.89;81.71;99908.19;5058093;28;19912;-58
2021/05/24 11:23:34;;;;;;;6.93;5.80;;;;;;;15.00;81.38;99911.16;5091803;28;20059;-58
2021/05/24 11:26:12;;;;;;;6.43;5.10;;;;;;;14.90;80.78;99915.19;5056395;28;20167;-57
2021/05/24 11:28:41;;;;;;;6.85;5.32;;;;;;;14.87;81.70;99910.06;5052070;28;20013;-57